Time;durP1;ratioP1;P1;durP2;ratioP2;P2;SDS_P1;SDS_P2;PMS_P1;PMS_P2;Temp;Humidity;BMP_temperature;BMP_pressure;BME280_temperature;BME280_humidity;BME280_pressure;Samples;Min_cycle;Max_cycle;Signal;HPM_P1;HPM_P2
2022/01/29 00:02:26;;;;;;;9.87;5.93;;;;;;;;;;4896129;29;20211;-92
2022/01/29 00:04:53;;;;;;;6.70;4.90;;;;;;;;;;4911789;29;20238;-91
2022/01/29 00:07:20;;;;;;;8.03;5.20;;;;;;;;;;4910928;29;20242;-92
2022/01/29 00:09:48;;;;;;;8.67;5.03;;;;;;;;;;4905866;29;20219;-92
2022/01/29 00:12:15;;;;;;;9.60;6.43;;;;;;;;;;4905043;29;20226;-92
2022/01/29 00:14:44;;;;;;;8.80;5.63;;;;;;;;;;4912662;29;20239;-92
2022/01/29 00:17:13;;;;;;;10.33;5.77;;;;;;;;;;4908529;29;20206;-93
2022/01/29 00:19:41;;;;;;;7.23;4.87;;;;;;;;;;4913206;29;20494;-92
2022/01/29 00:22:08;;;;;;;6.90;5.03;;;;;;;;;;4913956;29;20214;-92
2022/01/29 00:24:36;;;;;;;8.77;5.33;;;;;;;;;;4911162;29;20241;-92
2022/01/29 00:27:08;;;;;;;7.13;4.90;;;;;;;;;;4913306;29;20241;-92
2022/01/29 00:29:38;;;;;;;7.73;5.13;;;;;;;;;;4911699;29;20752;-92
2022/01/29 00:32:07;;;;;;;8.37;5.20;;;;;;;;;;4905309;29;20219;-92
2022/01/29 00:34:35;;;;;;;9.70;5.80;;;;;;;;;;4908523;29;20230;-92
2022/01/29 00:37:02;;;;;;;7.23;5.13;;;;;;;;;;4902635;29;20642;-91
2022/01/29 00:39:29;;;;;;;9.07;5.30;;;;;;;;;;4907529;29;20218;-91
2022/01/29 00:41:56;;;;;;;7.50;5.37;;;;;;;;;;4907562;29;20215;-92
2022/01/29 00:44:24;;;;;;;7.47;5.20;;;;;;;;;;4905036;29;20238;-92
2022/01/29 00:46:51;;;;;;;7.10;4.90;;;;;;;;;;4901640;29;20258;-91
2022/01/29 00:49:20;;;;;;;10.43;6.00;;;;;;;;;;4914659;29;20229;-92
2022/01/29 00:51:47;;;;;;;10.77;6.53;;;;;;;;;;4902362;29;20280;-91
2022/01/29 00:54:15;;;;;;;9.70;5.73;;;;;;;;;;4900463;29;20302;-92
2022/01/29 00:56:42;;;;;;;7.53;4.77;;;;;;;;;;4905476;29;20215;-92
2022/01/29 00:59:09;;;;;;;8.80;5.00;;;;;;;;;;4907327;29;20867;-92
2022/01/29 01:01:37;;;;;;;8.13;5.23;;;;;;;;;;4906177;29;20615;-92
2022/01/29 01:04:04;;;;;;;7.67;4.70;;;;;;;;;;4908371;29;20238;-93
2022/01/29 01:06:33;;;;;;;7.83;5.70;;;;;;;;;;4921008;29;20198;-93
2022/01/29 01:09:00;;;;;;;8.70;5.70;;;;;;;;;;4919025;29;20215;-92
2022/01/29 01:11:27;;;;;;;9.53;5.20;;;;;;;;;;4920243;28;20231;-92
2022/01/29 01:13:57;;;;;;;9.90;4.93;;;;;;;;;;4926207;28;20232;-92
2022/01/29 01:16:24;;;;;;;5.87;4.90;;;;;;;;;;4923599;28;20222;-93
2022/01/29 01:18:52;;;;;;;8.17;4.67;;;;;;;;;;4927890;28;20203;-92
2022/01/29 01:21:19;;;;;;;9.47;5.40;;;;;;;;;;4932554;28;20221;-92
2022/01/29 01:23:48;;;;;;;7.77;4.90;;;;;;;;;;4924108;28;20278;-94
2022/01/29 01:26:15;;;;;;;7.77;4.80;;;;;;;;;;4910300;29;20207;-94
2022/01/29 01:28:42;;;;;;;6.30;4.57;;;;;;;;;;4916340;29;20218;-94
2022/01/29 01:31:10;;;;;;;9.30;5.80;;;;;;;;;;4915019;29;20211;-93
2022/01/29 01:33:37;;;;;;;8.37;5.00;;;;;;;;;;4927810;29;20210;-92
2022/01/29 01:36:07;;;;;;;10.17;5.03;;;;;;;;;;4909283;29;20226;-94
2022/01/29 01:38:40;;;;;;;6.70;4.70;;;;;;;;;;4915952;29;20796;-94
2022/01/29 01:41:13;;;;;;;7.40;4.67;;;;;;;;;;4914084;29;20209;-93
2022/01/29 01:43:41;;;;;;;8.63;5.47;;;;;;;;;;4906812;29;20235;-94
2022/01/29 01:46:08;;;;;;;8.57;5.30;;;;;;;;;;4914850;29;20218;-92
2022/01/29 01:48:36;;;;;;;8.33;5.07;;;;;;;;;;4914964;29;20210;-93
2022/01/29 01:51:03;;;;;;;9.13;5.27;;;;;;;;;;4913757;29;20233;-93
2022/01/29 01:53:30;;;;;;;8.77;5.03;;;;;;;;;;4913580;29;20261;-94
2022/01/29 01:55:58;;;;;;;9.07;5.40;;;;;;;;;;4916035;29;20226;-94
2022/01/29 01:58:27;;;;;;;6.50;5.13;;;;;;;;;;4916178;29;20229;-94
2022/01/29 02:00:54;;;;;;;6.83;5.20;;;;;;;;;;4916633;29;20211;-94
2022/01/29 02:03:22;;;;;;;9.20;4.90;;;;;;;;;;4913476;29;20223;-94
2022/01/29 02:05:50;;;;;;;8.20;5.30;;;;;;;;;;4904730;29;20221;-94
2022/01/29 02:08:17;;;;;;;6.63;4.63;;;;;;;;;;4916923;29;20222;-94
2022/01/29 02:10:47;;;;;;;8.10;4.77;;;;;;;;;;4914003;29;20211;-92
2022/01/29 02:13:14;;;;;;;7.20;5.37;;;;;;;;;;4915768;29;20222;-94
2022/01/29 02:15:43;;;;;;;14.37;6.53;;;;;;;;;;4915050;29;20719;-94
2022/01/29 02:18:14;;;;;;;7.03;4.77;;;;;;;;;;4915480;29;20206;-94
2022/01/29 02:20:42;;;;;;;7.23;4.37;;;;;;;;;;4919872;29;20219;-94
2022/01/29 02:23:11;;;;;;;7.90;5.10;;;;;;;;;;4915643;29;20218;-95
2022/01/29 02:25:39;;;;;;;8.80;5.50;;;;;;;;;;4904866;29;20223;-94
2022/01/29 02:28:08;;;;;;;8.93;5.23;;;;;;;;;;4905755;29;20222;-94
2022/01/29 02:30:38;;;;;;;12.70;5.90;;;;;;;;;;4917943;29;20214;-94
2022/01/29 02:33:09;;;;;;;9.20;6.27;;;;;;;;;;4916368;29;20222;-94
2022/01/29 02:35:39;;;;;;;7.60;5.23;;;;;;;;;;4906785;29;20233;-94
2022/01/29 02:38:07;;;;;;;12.63;6.13;;;;;;;;;;4917593;29;20245;-92
2022/01/29 02:40:42;;;;;;;7.43;5.03;;;;;;;;;;4914761;29;20215;-94
2022/01/29 02:43:13;;;;;;;7.30;5.10;;;;;;;;;;4914120;29;20297;-94
2022/01/29 02:45:42;;;;;;;7.17;4.80;;;;;;;;;;4917307;29;20235;-94
2022/01/29 10:31:06;;;;;;;5.50;3.20;;;;;;;;;;6198740;22;1526373;-91
2022/01/29 10:42:34;;;;;;;4.53;3.77;;;;;;;;;;6209735;23;20181;-91
2022/01/29 10:45:03;;;;;;;5.97;3.47;;;;;;;;;;6210788;23;20236;-91
2022/01/29 10:47:32;;;;;;;5.30;3.40;;;;;;;;;;6211584;23;20268;-92
2022/01/29 10:50:06;;;;;;;5.40;3.60;;;;;;;;;;6212557;23;20185;-91
2022/01/29 10:52:34;;;;;;;6.13;3.73;;;;;;;;;;6210898;23;20236;-91
2022/01/29 10:55:05;;;;;;;4.30;3.13;;;;;;;;;;6210464;23;20205;-91
2022/01/29 10:57:45;;;;;;;6.03;3.77;;;;;;;;;;6212047;23;20181;-91
2022/01/29 11:00:26;;;;;;;4.63;3.40;;;;;;;;;;6210814;23;20184;-91
2022/01/29 11:03:01;;;;;;;4.20;2.90;;;;;;;;;;6210475;23;20613;-92
2022/01/29 11:06:02;;;;;;;6.07;3.43;;;;;;;;;;6211130;23;20198;-92
2022/01/29 11:11:14;;;;;;;4.77;3.20;;;;;;;;;;6210717;23;20239;-92
2022/01/29 11:13:45;;;;;;;5.13;3.63;;;;;;;;;;6212625;23;20193;-91
2022/01/29 11:16:17;;;;;;;5.40;3.97;;;;;;;;;;6213742;23;20214;-92
2022/01/29 11:18:49;;;;;;;5.00;3.90;;;;;;;;;;6213658;23;20181;-92
2022/01/29 11:21:18;;;;;;;4.00;2.97;;;;;;;;;;6212697;23;20174;-92
2022/01/29 11:23:48;;;;;;;8.47;3.87;;;;;;;;;;6213016;23;20259;-91
2022/01/29 11:26:15;;;;;;;4.23;2.97;;;;;;;;;;6221829;23;20542;-92
2022/01/29 11:28:46;;;;;;;5.13;3.57;;;;;;;;;;6226451;23;20224;-92
2022/01/29 11:31:24;;;;;;;6.33;3.43;;;;;;;;;;6225725;23;20186;-92
2022/01/29 11:34:19;;;;;;;5.53;3.30;;;;;;;;;;6227951;23;20233;-92
2022/01/29 11:37:10;;;;;;;5.60;3.67;;;;;;;;;;6156739;23;20174;-92
2022/01/29 11:39:38;;;;;;;5.30;3.83;;;;;;;;;;6227375;23;20171;-92
2022/01/29 11:42:24;;;;;;;3.60;3.10;;;;;;;;;;6221021;23;20645;-92
2022/01/29 11:47:59;;;;;;;3.13;2.83;;;;;;;;;;6209699;23;20198;-92
2022/01/29 11:51:05;;;;;;;2.80;2.50;;;;;;;;;;6213062;23;20636;-93
2022/01/29 11:53:50;;;;;;;4.27;2.80;;;;;;;;;;6214030;23;20174;-92
2022/01/29 11:56:31;;;;;;;2.77;2.43;;;;;;;;;;6212529;23;20198;-92
2022/01/29 11:59:19;;;;;;;2.70;2.03;;;;;;;;;;6212964;23;20170;-91
2022/01/29 12:01:57;;;;;;;3.23;2.90;;;;;;;;;;6213234;23;20185;-92
2022/01/29 12:04:42;;;;;;;2.43;1.93;;;;;;;;;;6212857;23;20244;-92
2022/01/29 12:07:15;;;;;;;3.73;2.33;;;;;;;;;;6209324;23;20198;-92
2022/01/29 12:09:57;;;;;;;2.60;2.10;;;;;;;;;;6213534;23;20208;-92
2022/01/29 12:12:27;;;;;;;3.10;2.03;;;;;;;;;;6213168;23;20520;-92
2022/01/29 12:15:08;;;;;;;;;;;;;;;;;;;;;
2022/01/29 12:17:46;;;;;;;2.80;1.90;;;;;;;;;;6212786;23;20178;-92
2022/01/29 12:20:15;;;;;;;1.97;1.87;;;;;;;;;;6213349;23;20166;-92
2022/01/29 12:25:30;;;;;;;1.63;1.50;;;;;;;;;;6210907;23;20202;-92
2022/01/29 12:28:00;;;;;;;1.30;1.10;;;;;;;;;;6211854;23;20217;-92
2022/01/29 12:30:31;;;;;;;3.77;1.00;;;;;;;;;;6211958;23;20178;-92
2022/01/29 12:33:00;;;;;;;4.63;1.50;;;;;;;;;;6211978;23;20182;-91
2022/01/29 12:35:45;;;;;;;4.10;1.60;;;;;;;;;;6212303;23;20194;-92
2022/01/29 12:44:25;;;;;;;2.23;1.20;;;;;;;;;;6214633;23;20639;-93
2022/01/29 12:46:52;;;;;;;2.07;1.80;;;;;;;;;;6214961;23;20194;-93
2022/01/29 12:49:20;;;;;;;2.10;1.77;;;;;;;;;;6214587;23;20879;-93
2022/01/29 12:51:51;;;;;;;1.37;1.27;;;;;;;;;;6214784;23;20174;-92
2022/01/29 12:54:19;;;;;;;1.60;1.50;;;;;;;;;;6212100;23;20220;-93
2022/01/29 12:56:49;;;;;;;2.73;1.30;;;;;;;;;;6211850;23;20181;-93
2022/01/29 12:59:20;;;;;;;2.63;1.20;;;;;;;;;;6212650;23;20459;-94
2022/01/29 13:01:49;;;;;;;1.50;1.00;;;;;;;;;;6212588;23;20236;-92
2022/01/29 13:04:18;;;;;;;0.80;0.80;;;;;;;;;;6212431;23;20253;-93
2022/01/29 13:06:46;;;;;;;1.40;1.30;;;;;;;;;;6212967;23;20182;-93
2022/01/29 13:09:14;;;;;;;1.70;1.50;;;;;;;;;;6211708;23;20201;-92
2022/01/29 13:11:42;;;;;;;1.37;1.20;;;;;;;;;;6213133;23;20374;-93
2022/01/29 13:14:14;;;;;;;1.23;1.10;;;;;;;;;;6212376;23;20904;-93
2022/01/29 13:16:41;;;;;;;1.53;1.17;;;;;;;;;;6212181;23;20177;-93
2022/01/29 13:19:13;;;;;;;1.20;1.10;;;;;;;;;;6211930;23;20232;-91
2022/01/29 13:21:41;;;;;;;1.97;1.40;;;;;;;;;;6212255;23;20181;-93
2022/01/29 13:24:27;;;;;;;1.40;1.10;;;;;;;;;;6211499;23;20197;-93
2022/01/29 13:27:08;;;;;;;0.80;0.80;;;;;;;;;;6212542;23;20178;-93
2022/01/29 13:29:36;;;;;;;2.03;1.20;;;;;;;;;;6211633;23;20254;-92
2022/01/29 13:32:04;;;;;;;1.30;0.93;;;;;;;;;;6212130;23;20182;-93
2022/01/29 13:34:34;;;;;;;1.57;1.10;;;;;;;;;;6212172;23;20590;-92
2022/01/29 13:37:22;;;;;;;1.40;1.00;;;;;;;;;;6212550;23;20480;-92
2022/01/29 13:39:51;;;;;;;1.23;1.13;;;;;;;;;;6212997;23;20232;-93
2022/01/29 13:42:20;;;;;;;1.13;1.03;;;;;;;;;;6213174;23;20188;-92
2022/01/29 13:45:03;;;;;;;4.07;1.37;;;;;;;;;;6212618;23;20204;-92
2022/01/29 13:47:39;;;;;;;1.10;1.00;;;;;;;;;;6211434;23;20256;-92
2022/01/29 13:50:28;;;;;;;0.97;0.80;;;;;;;;;;6212014;23;20176;-91
2022/01/29 13:53:02;;;;;;;0.80;0.70;;;;;;;;;;6211515;23;20249;-93
2022/01/29 13:55:29;;;;;;;1.03;1.00;;;;;;;;;;6211328;23;20205;-92
2022/01/29 13:58:04;;;;;;;1.03;1.03;;;;;;;;;;6212909;23;20180;-91
2022/01/29 14:00:51;;;;;;;4.10;1.23;;;;;;;;;;6212199;23;20173;-92
2022/01/29 14:03:20;;;;;;;1.30;1.20;;;;;;;;;;6211425;23;20173;-93
2022/01/29 14:05:49;;;;;;;0.90;0.90;;;;;;;;;;6211351;23;20236;-93
2022/01/29 14:08:18;;;;;;;1.13;0.90;;;;;;;;;;6211197;23;20909;-94
2022/01/29 14:10:46;;;;;;;0.70;0.70;;;;;;;;;;6211489;23;20601;-93
2022/01/29 14:13:13;;;;;;;0.97;0.97;;;;;;;;;;6212225;23;20202;-92
2022/01/29 14:15:43;;;;;;;2.20;1.10;;;;;;;;;;6212074;23;20198;-92
2022/01/29 14:24:02;;;;;;;1.23;1.13;;;;;;;;;;6212824;23;20312;-93
2022/01/29 14:26:29;;;;;;;1.57;1.37;;;;;;;;;;6212033;23;20178;-93
2022/01/29 14:28:59;;;;;;;1.37;1.20;;;;;;;;;;6213512;23;20208;-90
2022/01/29 14:31:28;;;;;;;2.43;1.20;;;;;;;;;;6212701;23;20193;-93
2022/01/29 14:33:55;;;;;;;2.40;1.13;;;;;;;;;;6211559;23;20749;-92
2022/01/29 14:36:23;;;;;;;2.57;1.23;;;;;;;;;;6212212;23;20249;-92
2022/01/29 14:38:50;;;;;;;1.80;1.17;;;;;;;;;;6211803;23;20174;-92
2022/01/29 14:41:20;;;;;;;1.33;1.03;;;;;;;;;;6212002;23;20691;-91
2022/01/29 14:43:48;;;;;;;0.57;0.57;;;;;;;;;;6211786;23;20517;-92
2022/01/29 14:46:15;;;;;;;1.40;1.10;;;;;;;;;;6211775;23;20182;-90
2022/01/29 14:48:43;;;;;;;1.47;1.10;;;;;;;;;;6212529;23;20574;-92
2022/01/29 14:51:10;;;;;;;0.87;0.80;;;;;;;;;;6212026;23;20170;-92
2022/01/29 14:53:38;;;;;;;1.77;1.20;;;;;;;;;;6211600;23;20185;-91
2022/01/29 14:56:10;;;;;;;1.23;1.10;;;;;;;;;;6211169;23;20261;-92
2022/01/29 14:58:39;;;;;;;0.93;0.93;;;;;;;;;;6212207;23;20475;-91
2022/01/29 15:01:06;;;;;;;1.30;1.20;;;;;;;;;;6211550;23;20181;-92
2022/01/29 15:03:35;;;;;;;1.13;1.10;;;;;;;;;;6211436;23;20178;-91
2022/01/29 15:06:05;;;;;;;1.23;1.13;;;;;;;;;;6211695;23;20241;-92
2022/01/29 15:08:32;;;;;;;1.70;1.00;;;;;;;;;;6210980;23;20190;-92
2022/01/29 15:11:00;;;;;;;1.83;1.30;;;;;;;;;;6211324;23;20671;-91
2022/01/29 15:13:29;;;;;;;2.47;1.47;;;;;;;;;;6210791;23;20193;-92
2022/01/29 15:15:58;;;;;;;1.93;0.97;;;;;;;;;;6211157;23;20257;-91
2022/01/29 15:18:26;;;;;;;1.77;1.10;;;;;;;;;;6211645;23;20520;-92
2022/01/29 15:20:54;;;;;;;0.87;0.87;;;;;;;;;;6211430;23;20206;-90
2022/01/29 15:23:30;;;;;;;1.70;1.30;;;;;;;;;;6211241;23;20181;-92
2022/01/29 15:25:57;;;;;;;1.30;1.17;;;;;;;;;;6210978;23;20170;-91
2022/01/29 15:28:24;;;;;;;1.87;0.97;;;;;;;;;;6210283;23;20244;-92
2022/01/29 15:30:55;;;;;;;1.50;1.40;;;;;;;;;;6212425;23;20228;-94
2022/01/29 15:33:24;;;;;;;1.13;1.03;;;;;;;;;;6212167;23;20872;-91
2022/01/29 15:35:51;;;;;;;2.03;1.50;;;;;;;;;;6211964;23;20186;-92
2022/01/29 15:38:20;;;;;;;1.83;1.73;;;;;;;;;;6211555;23;20246;-91
2022/01/29 15:40:50;;;;;;;1.30;1.20;;;;;;;;;;6212661;23;20251;-94
2022/01/29 15:43:20;;;;;;;2.40;1.23;;;;;;;;;;6213047;23;20177;-92
2022/01/29 15:45:48;;;;;;;1.20;1.10;;;;;;;;;;6211874;23;20177;-91
2022/01/29 15:48:15;;;;;;;3.03;2.13;;;;;;;;;;6211869;23;20276;-91
2022/01/29 15:50:44;;;;;;;9.87;5.27;;;;;;;;;;6212589;23;20185;-92
2022/01/29 15:53:11;;;;;;;2.17;1.63;;;;;;;;;;6212423;23;20205;-92
2022/01/29 15:55:40;;;;;;;1.33;1.20;;;;;;;;;;6213329;23;20208;-91
2022/01/29 15:58:10;;;;;;;1.70;1.43;;;;;;;;;;6214323;23;20181;-93
2022/01/29 16:00:39;;;;;;;4.60;1.30;;;;;;;;;;6214566;23;20245;-92
2022/01/29 16:03:07;;;;;;;2.40;1.93;;;;;;;;;;6213880;23;20236;-91
2022/01/29 16:05:34;;;;;;;1.30;1.27;;;;;;;;;;6213608;23;20672;-92
2022/01/29 16:08:03;;;;;;;1.50;1.40;;;;;;;;;;6214093;23;20661;-92
2022/01/29 16:10:31;;;;;;;1.43;1.20;;;;;;;;;;6213810;23;20184;-92
2022/01/29 16:12:58;;;;;;;1.70;1.60;;;;;;;;;;6213516;23;20178;-92
2022/01/29 16:15:26;;;;;;;1.77;1.37;;;;;;;;;;6214289;23;20273;-93
2022/01/29 16:17:54;;;;;;;1.40;1.10;;;;;;;;;;6213571;23;20178;-92
2022/01/29 16:20:21;;;;;;;3.37;1.30;;;;;;;;;;6212866;23;20232;-92
2022/01/29 16:22:49;;;;;;;1.60;1.50;;;;;;;;;;6213734;23;20791;-95
2022/01/29 16:25:17;;;;;;;2.10;1.30;;;;;;;;;;6213688;23;20209;-91
2022/01/29 16:27:45;;;;;;;1.10;1.00;;;;;;;;;;6213469;23;20276;-93
2022/01/29 16:30:13;;;;;;;1.03;1.00;;;;;;;;;;6213002;23;20194;-93
2022/01/29 16:32:41;;;;;;;1.20;1.10;;;;;;;;;;6213911;23;20189;-90
2022/01/29 16:35:09;;;;;;;1.50;1.30;;;;;;;;;;6213633;23;20198;-92
2022/01/29 16:37:36;;;;;;;2.00;1.53;;;;;;;;;;6213053;23;20230;-91
2022/01/29 16:40:04;;;;;;;2.80;1.30;;;;;;;;;;6212934;23;20170;-93
2022/01/29 16:42:33;;;;;;;0.93;0.90;;;;;;;;;;6212813;23;20900;-93
2022/01/29 16:45:02;;;;;;;1.70;1.13;;;;;;;;;;6211838;23;20305;-92
2022/01/29 16:47:30;;;;;;;1.97;1.13;;;;;;;;;;6212502;23;20625;-93
2022/01/29 16:49:57;;;;;;;1.30;1.20;;;;;;;;;;6211818;23;20718;-90
2022/01/29 16:52:25;;;;;;;2.00;1.40;;;;;;;;;;6212334;23;20178;-90
2022/01/29 16:54:52;;;;;;;1.03;1.03;;;;;;;;;;6211426;23;20252;-91
2022/01/29 16:57:19;;;;;;;1.60;1.50;;;;;;;;;;6211579;23;20178;-91
2022/01/29 16:59:48;;;;;;;1.40;1.30;;;;;;;;;;6211315;23;20228;-91
2022/01/29 17:02:17;;;;;;;0.80;0.80;;;;;;;;;;6211241;23;20252;-91
2022/01/29 17:04:45;;;;;;;2.07;1.27;;;;;;;;;;6211987;23;20198;-91
2022/01/29 17:07:12;;;;;;;1.60;1.00;;;;;;;;;;6210859;23;20429;-93
2022/01/29 17:09:40;;;;;;;4.70;2.93;;;;;;;;;;6211072;23;20311;-91
2022/01/29 17:12:08;;;;;;;1.63;1.50;;;;;;;;;;6211347;23;20185;-92
2022/01/29 17:14:45;;;;;;;2.10;1.17;;;;;;;;;;6211706;23;20248;-91
2022/01/29 17:17:14;;;;;;;1.27;1.10;;;;;;;;;;6211066;23;20239;-92
2022/01/29 17:19:41;;;;;;;2.10;1.23;;;;;;;;;;6211526;23;20174;-90
2022/01/29 17:22:08;;;;;;;2.17;1.30;;;;;;;;;;6211748;23;20174;-92
2022/01/29 17:24:36;;;;;;;1.43;1.33;;;;;;;;;;6212320;23;20204;-90
2022/01/29 17:27:03;;;;;;;1.13;1.10;;;;;;;;;;6211684;23;20178;-92
2022/01/29 17:29:31;;;;;;;1.00;1.00;;;;;;;;;;6211617;23;20190;-93
2022/01/29 17:31:58;;;;;;;1.37;1.20;;;;;;;;;;6212292;23;20240;-91
2022/01/29 17:34:27;;;;;;;3.50;1.00;;;;;;;;;;6211179;23;20202;-91
2022/01/29 17:36:54;;;;;;;1.50;1.23;;;;;;;;;;6211744;23;20182;-91
2022/01/29 17:39:21;;;;;;;1.37;1.00;;;;;;;;;;6212028;23;20228;-92
2022/01/29 17:41:48;;;;;;;1.10;1.00;;;;;;;;;;6210669;23;20563;-91
2022/01/29 17:44:16;;;;;;;0.93;0.83;;;;;;;;;;6210550;23;20257;-91
2022/01/29 17:46:45;;;;;;;1.33;1.23;;;;;;;;;;6211788;23;20173;-93
2022/01/29 17:49:13;;;;;;;2.40;1.87;;;;;;;;;;6211839;23;20243;-91
2022/01/29 17:51:41;;;;;;;1.37;1.27;;;;;;;;;;6211255;23;20178;-91
2022/01/29 17:54:09;;;;;;;1.43;1.33;;;;;;;;;;6211301;23;20194;-92
2022/01/29 17:56:36;;;;;;;1.20;1.10;;;;;;;;;;6212011;23;20667;-91
2022/01/29 17:59:03;;;;;;;1.57;1.30;;;;;;;;;;6211150;23;20226;-91
2022/01/29 18:01:31;;;;;;;1.53;1.07;;;;;;;;;;6210834;23;20232;-91
2022/01/29 18:03:58;;;;;;;1.97;1.20;;;;;;;;;;6211816;23;20252;-91
2022/01/29 18:06:27;;;;;;;1.43;1.13;;;;;;;;;;6211414;23;20205;-92
2022/01/29 18:08:56;;;;;;;1.13;1.03;;;;;;;;;;6211069;23;20641;-92
2022/01/29 18:11:24;;;;;;;1.23;1.13;;;;;;;;;;6211100;23;20182;-93
2022/01/29 18:13:52;;;;;;;1.17;1.07;;;;;;;;;;6210858;23;20194;-91
2022/01/29 18:16:20;;;;;;;1.57;1.10;;;;;;;;;;6210814;23;20413;-92
2022/01/29 18:18:48;;;;;;;1.70;1.23;;;;;;;;;;6211353;23;20178;-93
2022/01/29 18:21:15;;;;;;;1.30;1.20;;;;;;;;;;6211904;23;20185;-91
2022/01/29 18:23:43;;;;;;;1.27;1.23;;;;;;;;;;6210765;23;20656;-91
2022/01/29 18:26:14;;;;;;;1.20;0.90;;;;;;;;;;6210936;23;20563;-91
2022/01/29 18:28:42;;;;;;;1.50;1.40;;;;;;;;;;6211676;23;20948;-92
2022/01/29 18:31:09;;;;;;;1.47;1.37;;;;;;;;;;6211211;23;20178;-92
2022/01/29 18:33:37;;;;;;;1.20;1.10;;;;;;;;;;6211169;23;20236;-92
2022/01/29 18:36:06;;;;;;;2.27;1.40;;;;;;;;;;6211226;23;20178;-93
2022/01/29 18:38:33;;;;;;;1.70;1.40;;;;;;;;;;6211492;23;20185;-92
2022/01/29 18:41:01;;;;;;;1.30;1.20;;;;;;;;;;6210920;23;20535;-91
2022/01/29 18:43:31;;;;;;;1.90;1.57;;;;;;;;;;6211345;23;20629;-92
2022/01/29 18:45:59;;;;;;;1.60;1.50;;;;;;;;;;6212415;23;20174;-91
2022/01/29 18:48:27;;;;;;;1.50;1.40;;;;;;;;;;6210798;23;20178;-90
2022/01/29 18:50:55;;;;;;;1.37;1.27;;;;;;;;;;6210930;23;20194;-92
2022/01/29 18:53:23;;;;;;;1.23;1.13;;;;;;;;;;6211212;23;20198;-92
2022/01/29 18:55:50;;;;;;;1.80;1.30;;;;;;;;;;6211598;23;20251;-91
2022/01/29 19:01:24;;;;;;;1.23;1.13;;;;;;;;;;6149030;23;20194;-91
2022/01/29 19:03:52;;;;;;;0.83;0.83;;;;;;;;;;6210807;23;20212;-92
2022/01/29 19:06:20;;;;;;;1.53;1.20;;;;;;;;;;6211322;23;20178;-91
2022/01/29 19:08:47;;;;;;;1.50;1.23;;;;;;;;;;6211362;23;20182;-91
2022/01/29 19:11:15;;;;;;;1.37;1.23;;;;;;;;;;6211423;23;20177;-93
2022/01/29 19:13:46;;;;;;;1.77;1.33;;;;;;;;;;6210960;23;20201;-92
2022/01/29 19:16:13;;;;;;;1.47;1.33;;;;;;;;;;6209995;23;20628;-91
2022/01/29 19:18:43;;;;;;;1.27;1.17;;;;;;;;;;6210530;23;20186;-92
2022/01/29 19:21:12;;;;;;;3.30;1.50;;;;;;;;;;6210794;23;20205;-92
2022/01/29 19:23:39;;;;;;;1.67;1.13;;;;;;;;;;6210135;23;20228;-92
2022/01/29 19:26:07;;;;;;;1.83;1.07;;;;;;;;;;6210478;23;20324;-91
2022/01/29 19:28:34;;;;;;;1.63;1.33;;;;;;;;;;6210074;23;20746;-92
2022/01/29 19:31:03;;;;;;;1.33;1.23;;;;;;;;;;6211793;23;20301;-91
2022/01/29 19:33:30;;;;;;;1.67;1.30;;;;;;;;;;6211951;23;20556;-91
2022/01/29 19:35:58;;;;;;;1.10;1.00;;;;;;;;;;6211578;23;20227;-92
2022/01/29 19:38:32;;;;;;;2.23;1.57;;;;;;;;;;6212394;23;20249;-91
2022/01/29 19:40:59;;;;;;;1.27;1.17;;;;;;;;;;6211799;23;20169;-91
2022/01/29 19:43:27;;;;;;;1.40;1.30;;;;;;;;;;6210943;23;20244;-92
2022/01/29 19:45:54;;;;;;;1.70;1.10;;;;;;;;;;6211721;23;20185;-93
2022/01/29 19:48:26;;;;;;;1.07;0.97;;;;;;;;;;6212034;23;20178;-92
2022/01/29 19:50:53;;;;;;;1.50;1.10;;;;;;;;;;6211311;23;20244;-91
2022/01/29 19:53:20;;;;;;;1.70;0.97;;;;;;;;;;6213631;23;20179;-92
2022/01/29 19:55:48;;;;;;;1.03;0.93;;;;;;;;;;6212356;23;20181;-92
2022/01/29 19:58:16;;;;;;;1.07;0.90;;;;;;;;;;6211607;23;20193;-92
2022/01/29 20:00:43;;;;;;;1.83;1.00;;;;;;;;;;6212139;23;20174;-92
2022/01/29 20:03:11;;;;;;;0.90;0.90;;;;;;;;;;6211127;23;20232;-91
2022/01/29 20:05:42;;;;;;;1.13;0.90;;;;;;;;;;6210916;23;20201;-92
2022/01/29 20:08:10;;;;;;;0.47;0.47;;;;;;;;;;6211188;23;20185;-92
2022/01/29 20:10:42;;;;;;;1.13;0.97;;;;;;;;;;6211483;23;20213;-92
2022/01/29 20:13:09;;;;;;;0.90;0.90;;;;;;;;;;6212052;23;20174;-92
2022/01/29 20:15:37;;;;;;;1.40;1.07;;;;;;;;;;6210556;23;20593;-92
2022/01/29 20:18:04;;;;;;;2.43;1.00;;;;;;;;;;6211476;23;20560;-94
2022/01/29 20:20:32;;;;;;;1.10;1.07;;;;;;;;;;6212697;23;20496;-92
2022/01/29 20:23:01;;;;;;;1.20;1.10;;;;;;;;;;6212252;23;20174;-92
2022/01/29 20:25:29;;;;;;;1.67;1.17;;;;;;;;;;6211025;23;20197;-92
2022/01/29 20:27:57;;;;;;;0.70;0.63;;;;;;;;;;6211705;23;20182;-92
2022/01/29 20:30:25;;;;;;;1.57;1.23;;;;;;;;;;6212384;23;20260;-92
2022/01/29 20:32:53;;;;;;;1.13;1.03;;;;;;;;;;6211114;23;20236;-92
2022/01/29 20:35:22;;;;;;;0.80;0.80;;;;;;;;;;6211804;23;20194;-94
2022/01/29 20:37:49;;;;;;;1.40;1.30;;;;;;;;;;6212567;23;20181;-92
2022/01/29 20:40:18;;;;;;;0.77;0.77;;;;;;;;;;6211512;23;20375;-93
2022/01/29 20:42:46;;;;;;;2.73;1.10;;;;;;;;;;6211886;23;20205;-93
2022/01/29 20:45:20;;;;;;;0.67;0.57;;;;;;;;;;6212175;23;20198;-92
2022/01/29 20:47:47;;;;;;;1.73;1.07;;;;;;;;;;6212300;23;20170;-93
2022/01/29 20:50:15;;;;;;;2.13;1.03;;;;;;;;;;6211229;23;20260;-91
2022/01/29 20:52:42;;;;;;;1.70;1.43;;;;;;;;;;6210784;23;20261;-92
2022/01/29 20:55:11;;;;;;;1.20;1.10;;;;;;;;;;6211571;23;20198;-92
2022/01/29 20:57:40;;;;;;;1.70;1.30;;;;;;;;;;6210538;23;20767;-92
2022/01/29 21:00:08;;;;;;;0.50;0.37;;;;;;;;;;6209750;23;20178;-92
2022/01/29 21:02:36;;;;;;;1.13;0.40;;;;;;;;;;6211128;23;20267;-94
2022/01/29 21:05:29;;;;;;;0.60;0.60;;;;;;;;;;6212138;23;20237;-92
2022/01/29 21:07:56;;;;;;;0.70;0.63;;;;;;;;;;6211965;23;20244;-93
2022/01/29 21:10:23;;;;;;;0.63;0.63;;;;;;;;;;6212179;23;20198;-92
2022/01/29 21:12:52;;;;;;;0.50;0.50;;;;;;;;;;6211537;23;20189;-92
2022/01/29 21:15:20;;;;;;;0.60;0.60;;;;;;;;;;6211686;23;20197;-92
2022/01/29 21:17:49;;;;;;;0.20;0.20;;;;;;;;;;6211806;23;20182;-92
2022/01/29 21:20:16;;;;;;;0.30;0.30;;;;;;;;;;6211895;23;20188;-92
2022/01/29 21:22:48;;;;;;;0.50;0.50;;;;;;;;;;6211151;23;20228;-92
2022/01/29 21:25:25;;;;;;;0.60;0.60;;;;;;;;;;6211178;23;20205;-93
2022/01/29 21:28:05;;;;;;;1.10;1.00;;;;;;;;;;6211087;23;20174;-93
2022/01/29 21:30:37;;;;;;;0.33;0.33;;;;;;;;;;6211764;23;20194;-93
2022/01/29 21:33:05;;;;;;;0.43;0.43;;;;;;;;;;6211132;23;20806;-93
2022/01/29 21:35:38;;;;;;;0.33;0.33;;;;;;;;;;6211812;23;20257;-92
2022/01/29 21:38:06;;;;;;;0.27;0.27;;;;;;;;;;6211299;23;20182;-92
2022/01/29 21:40:34;;;;;;;0.83;0.70;;;;;;;;;;6210889;23;20174;-92
2022/01/29 21:43:04;;;;;;;0.20;0.20;;;;;;;;;;6212195;23;20234;-93
2022/01/29 21:45:33;;;;;;;0.20;0.20;;;;;;;;;;6213610;23;20205;-93
2022/01/29 21:48:00;;;;;;;0.40;0.40;;;;;;;;;;6210938;23;20197;-93
2022/01/29 21:50:28;;;;;;;0.43;0.43;;;;;;;;;;6212191;23;20576;-93
2022/01/29 21:52:55;;;;;;;0.37;0.37;;;;;;;;;;6212262;23;20236;-93
2022/01/29 21:55:25;;;;;;;0.50;0.50;;;;;;;;;;6211513;23;20576;-92
2022/01/29 21:57:52;;;;;;;0.83;0.60;;;;;;;;;;6212142;23;20245;-93
2022/01/29 22:00:22;;;;;;;0.43;0.40;;;;;;;;;;6211779;23;20197;-93
2022/01/29 22:02:49;;;;;;;1.20;0.33;;;;;;;;;;6211276;23;20249;-92
2022/01/29 22:05:17;;;;;;;0.30;0.30;;;;;;;;;;6212170;23;20200;-92
2022/01/29 22:07:44;;;;;;;0.50;0.50;;;;;;;;;;6211624;23;20175;-93
2022/01/29 22:10:12;;;;;;;0.40;0.40;;;;;;;;;;6212169;23;20194;-93
2022/01/29 22:12:39;;;;;;;0.53;0.47;;;;;;;;;;6211346;23;20188;-92
2022/01/29 22:15:07;;;;;;;0.40;0.40;;;;;;;;;;6211014;23;20256;-93
2022/01/29 22:17:37;;;;;;;0.33;0.33;;;;;;;;;;6210507;23;20248;-92
2022/01/29 22:20:06;;;;;;;0.30;0.30;;;;;;;;;;6211196;23;20184;-93
2022/01/29 22:22:34;;;;;;;0.30;0.30;;;;;;;;;;6211011;23;20232;-92
2022/01/29 22:25:04;;;;;;;0.47;0.47;;;;;;;;;;6211311;23;20194;-93
2022/01/29 22:27:31;;;;;;;0.43;0.43;;;;;;;;;;6211964;23;20629;-92
2022/01/29 22:29:59;;;;;;;0.50;0.50;;;;;;;;;;6210724;23;20253;-92
2022/01/29 22:32:26;;;;;;;0.40;0.40;;;;;;;;;;6210893;23;20197;-93
2022/01/29 22:34:55;;;;;;;0.60;0.60;;;;;;;;;;6211469;23;20228;-92
2022/01/29 22:37:24;;;;;;;0.40;0.40;;;;;;;;;;6210039;23;20725;-92
2022/01/29 22:39:52;;;;;;;0.63;0.43;;;;;;;;;;6210816;23;20178;-92
2022/01/29 22:42:21;;;;;;;0.40;0.40;;;;;;;;;;6209168;23;20186;-93
2022/01/29 22:44:48;;;;;;;0.40;0.40;;;;;;;;;;6210809;23;20273;-91
2022/01/29 22:47:16;;;;;;;0.50;0.50;;;;;;;;;;6209649;23;20182;-91
2022/01/29 22:49:43;;;;;;;0.60;0.60;;;;;;;;;;6211048;23;20178;-93
2022/01/29 22:52:12;;;;;;;1.63;0.50;;;;;;;;;;6211061;23;20189;-92
2022/01/29 22:54:39;;;;;;;0.20;0.20;;;;;;;;;;6210371;23;20198;-92
2022/01/29 22:57:07;;;;;;;0.30;0.30;;;;;;;;;;6210089;23;20690;-92
2022/01/29 22:59:36;;;;;;;0.30;0.30;;;;;;;;;;6210606;23;20519;-92
2022/01/29 23:02:03;;;;;;;0.50;0.50;;;;;;;;;;6210098;23;20174;-92
2022/01/29 23:04:33;;;;;;;0.47;0.47;;;;;;;;;;6214199;23;20201;-93
2022/01/29 23:07:00;;;;;;;0.73;0.70;;;;;;;;;;6215525;23;20177;-91
2022/01/29 23:09:37;;;;;;;0.43;0.43;;;;;;;;;;6217162;23;20527;-92
2022/01/29 23:12:19;;;;;;;0.40;0.40;;;;;;;;;;6216731;23;20197;-92
2022/01/29 23:14:46;;;;;;;1.23;0.50;;;;;;;;;;6216594;23;20198;-93